sensor_id;sensor_type;location;lat;lon;timestamp;pressure;altitude;pressure_sealevel;temperature;humidity
47785;BME280;35233;55.686;37.848;2023-08-08T00:02:04;99047.31;;;26.20;50.13
47785;BME280;35233;55.686;37.848;2023-08-08T00:04:31;99053.91;;;26.18;50.11
47785;BME280;35233;55.686;37.848;2023-08-08T00:06:56;99042.06;;;26.19;50.22
47785;BME280;35233;55.686;37.848;2023-08-08T00:09:22;99047.25;;;26.12;50.30
47785;BME280;35233;55.686;37.848;2023-08-08T00:11:47;99041.84;;;26.12;50.00
47785;BME280;35233;55.686;37.848;2023-08-08T00:14:14;99046.63;;;26.18;49.99
47785;BME280;35233;55.686;37.848;2023-08-08T00:16:39;99036.44;;;26.12;50.04
47785;BME280;35233;55.686;37.848;2023-08-08T00:19:05;99034.03;;;25.91;50.28
47785;BME280;35233;55.686;37.848;2023-08-08T00:21:30;99041.09;;;25.84;50.34
47785;BME280;35233;55.686;37.848;2023-08-08T00:23:56;99035.84;;;26.01;50.15
47785;BME280;35233;55.686;37.848;2023-08-08T00:26:21;99037.91;;;26.07;49.48
47785;BME280;35233;55.686;37.848;2023-08-08T00:28:47;99029.94;;;26.05;49.69
47785;BME280;35233;55.686;37.848;2023-08-08T00:31:12;99021.13;;;26.03;50.16
47785;BME280;35233;55.686;37.848;2023-08-08T00:33:38;99018.13;;;25.88;50.20
47785;BME280;35233;55.686;37.848;2023-08-08T00:36:03;99020.13;;;26.04;49.58
47785;BME280;35233;55.686;37.848;2023-08-08T00:38:29;99017.41;;;26.04;49.94
47785;BME280;35233;55.686;37.848;2023-08-08T00:40:55;99007.47;;;25.87;50.13
47785;BME280;35233;55.686;37.848;2023-08-08T00:43:20;99017.03;;;25.99;49.96
47785;BME280;35233;55.686;37.848;2023-08-08T00:45:46;99006.91;;;26.01;49.67
47785;BME280;35233;55.686;37.848;2023-08-08T00:48:11;99021.84;;;25.87;49.78
47785;BME280;35233;55.686;37.848;2023-08-08T00:50:42;99010.59;;;26.00;50.03
47785;BME280;35233;55.686;37.848;2023-08-08T00:53:08;99018.69;;;25.92;49.59
47785;BME280;35233;55.686;37.848;2023-08-08T00:55:33;99018.91;;;25.99;49.69
47785;BME280;35233;55.686;37.848;2023-08-08T00:57:59;99023.81;;;26.03;48.96
47785;BME280;35233;55.686;37.848;2023-08-08T01:00:25;99023.91;;;25.75;50.01
47785;BME280;35233;55.686;37.848;2023-08-08T01:02:51;99015.72;;;25.85;50.23
47785;BME280;35233;55.686;37.848;2023-08-08T01:05:16;99003.91;;;25.86;49.72
47785;BME280;35233;55.686;37.848;2023-08-08T01:10:24;98985.28;;;25.47;50.08
47785;BME280;35233;55.686;37.848;2023-08-08T01:12:55;98977.28;;;25.82;49.87
47785;BME280;35233;55.686;37.848;2023-08-08T01:15:24;98961.47;;;25.87;49.14
47785;BME280;35233;55.686;37.848;2023-08-08T01:17:51;98950.66;;;25.87;49.62
47785;BME280;35233;55.686;37.848;2023-08-08T01:20:18;98960.31;;;25.89;49.48
47785;BME280;35233;55.686;37.848;2023-08-08T01:25:34;98974.31;;;25.85;49.42
47785;BME280;35233;55.686;37.848;2023-08-08T01:28:00;98965.09;;;25.78;49.34
47785;BME280;35233;55.686;37.848;2023-08-08T01:30:26;98975.47;;;25.82;49.90
47785;BME280;35233;55.686;37.848;2023-08-08T01:32:52;98978.75;;;25.94;49.83
47785;BME280;35233;55.686;37.848;2023-08-08T01:35:17;98978.63;;;25.95;49.41
47785;BME280;35233;55.686;37.848;2023-08-08T01:37:50;98969.34;;;25.98;49.46
47785;BME280;35233;55.686;37.848;2023-08-08T01:40:17;98971.66;;;25.93;49.84
47785;BME280;35233;55.686;37.848;2023-08-08T01:42:45;98962.84;;;25.91;49.79
47785;BME280;35233;55.686;37.848;2023-08-08T01:45:11;98959.44;;;25.89;49.53
47785;BME280;35233;55.686;37.848;2023-08-08T01:47:37;98962.69;;;25.74;49.63
47785;BME280;35233;55.686;37.848;2023-08-08T01:50:03;98958.97;;;25.75;49.34
47785;BME280;35233;55.686;37.848;2023-08-08T01:52:29;98953.66;;;25.84;49.32
47785;BME280;35233;55.686;37.848;2023-08-08T01:54:54;98966.56;;;25.90;48.78
47785;BME280;35233;55.686;37.848;2023-08-08T01:57:20;98968.25;;;25.91;49.51
47785;BME280;35233;55.686;37.848;2023-08-08T01:59:46;98957.75;;;25.88;48.91
47785;BME280;35233;55.686;37.848;2023-08-08T02:02:11;98964.56;;;25.92;49.02
47785;BME280;35233;55.686;37.848;2023-08-08T02:04:37;98964.38;;;25.93;49.01
47785;BME280;35233;55.686;37.848;2023-08-08T02:07:03;98961.22;;;25.98;48.54
47785;BME280;35233;55.686;37.848;2023-08-08T02:09:28;98968.09;;;25.92;48.73
47785;BME280;35233;55.686;37.848;2023-08-08T02:11:54;98967.94;;;25.94;48.64
47785;BME280;35233;55.686;37.848;2023-08-08T02:14:19;98958.81;;;25.77;49.23
47785;BME280;35233;55.686;37.848;2023-08-08T02:16:45;98950.03;;;25.75;48.49
47785;BME280;35233;55.686;37.848;2023-08-08T02:19:10;98948.25;;;25.84;48.55
47785;BME280;35233;55.686;37.848;2023-08-08T02:21:36;98958.66;;;25.79;48.50
47785;BME280;35233;55.686;37.848;2023-08-08T02:24:02;98963.00;;;25.89;48.38
47785;BME280;35233;55.686;37.848;2023-08-08T02:26:27;98962.63;;;25.84;48.66
47785;BME280;35233;55.686;37.848;2023-08-08T02:28:52;98960.78;;;25.85;48.05
47785;BME280;35233;55.686;37.848;2023-08-08T02:31:18;98962.91;;;25.81;48.20
47785;BME280;35233;55.686;37.848;2023-08-08T02:33:49;98957.28;;;25.74;48.47
47785;BME280;35233;55.686;37.848;2023-08-08T02:36:16;98962.69;;;25.74;48.55
47785;BME280;35233;55.686;37.848;2023-08-08T02:38:42;98955.78;;;25.80;48.66
47785;BME280;35233;55.686;37.848;2023-08-08T02:41:08;98961.00;;;25.56;49.30
47785;BME280;35233;55.686;37.848;2023-08-08T02:43:33;98954.84;;;25.45;49.16
47785;BME280;35233;55.686;37.848;2023-08-08T02:45:58;98951.31;;;25.71;49.08
47785;BME280;35233;55.686;37.848;2023-08-08T02:48:24;98960.13;;;25.73;48.39
47785;BME280;35233;55.686;37.848;2023-08-08T02:50:49;98962.84;;;25.73;48.71
47785;BME280;35233;55.686;37.848;2023-08-08T02:53:15;98967.63;;;25.79;48.82
47785;BME280;35233;55.686;37.848;2023-08-08T02:55:40;98949.44;;;25.63;48.27
47785;BME280;35233;55.686;37.848;2023-08-08T02:58:06;98974.59;;;25.82;48.22
47785;BME280;35233;55.686;37.848;2023-08-08T03:00:31;98955.56;;;25.73;48.57
47785;BME280;35233;55.686;37.848;2023-08-08T03:02:57;98956.91;;;25.87;48.45
47785;BME280;35233;55.686;37.848;2023-08-08T03:05:23;98960.94;;;25.83;48.49
47785;BME280;35233;55.686;37.848;2023-08-08T03:07:48;98967.72;;;25.87;48.67
47785;BME280;35233;55.686;37.848;2023-08-08T03:10:14;98973.53;;;25.57;48.40
47785;BME280;35233;55.686;37.848;2023-08-08T03:12:40;98970.34;;;25.61;48.81
47785;BME280;35233;55.686;37.848;2023-08-08T03:15:07;98973.22;;;25.78;48.53
47785;BME280;35233;55.686;37.848;2023-08-08T03:17:33;98968.88;;;25.85;47.67
47785;BME280;35233;55.686;37.848;2023-08-08T03:20:00;98967.19;;;25.84;47.73
47785;BME280;35233;55.686;37.848;2023-08-08T03:22:25;98977.84;;;25.85;48.21
47785;BME280;35233;55.686;37.848;2023-08-08T03:24:51;98963.00;;;25.89;47.41
47785;BME280;35233;55.686;37.848;2023-08-08T03:27:16;98976.38;;;25.91;47.70
47785;BME280;35233;55.686;37.848;2023-08-08T03:29:42;98975.84;;;25.87;47.70
47785;BME280;35233;55.686;37.848;2023-08-08T03:32:07;98976.31;;;25.83;47.65
47785;BME280;35233;55.686;37.848;2023-08-08T03:34:33;98981.09;;;25.89;47.76
47785;BME280;35233;55.686;37.848;2023-08-08T03:36:59;98966.06;;;25.94;47.74
47785;BME280;35233;55.686;37.848;2023-08-08T03:39:25;98971.66;;;25.93;47.74
47785;BME280;35233;55.686;37.848;2023-08-08T03:41:50;98973.28;;;25.86;47.70
47785;BME280;35233;55.686;37.848;2023-08-08T03:44:16;98971.72;;;26.01;47.44
47785;BME280;35233;55.686;37.848;2023-08-08T03:46:41;98975.66;;;26.07;46.91
47785;BME280;35233;55.686;37.848;2023-08-08T03:49:07;98979.53;;;26.04;47.67
47785;BME280;35233;55.686;37.848;2023-08-08T03:51:33;98980.19;;;26.06;47.74
47785;BME280;35233;55.686;37.848;2023-08-08T03:53:58;98992.03;;;26.05;47.41
47785;BME280;35233;55.686;37.848;2023-08-08T03:56:24;98996.03;;;25.93;47.87
47785;BME280;35233;55.686;37.848;2023-08-08T03:58:49;98995.75;;;26.04;47.19
47785;BME280;35233;55.686;37.848;2023-08-08T04:01:15;98995.09;;;25.84;47.51
47785;BME280;35233;55.686;37.848;2023-08-08T04:03:41;99002.50;;;25.82;48.11
47785;BME280;35233;55.686;37.848;2023-08-08T04:06:06;99004.81;;;25.59;48.19
47785;BME280;35233;55.686;37.848;2023-08-08T04:08:32;99007.91;;;25.64;48.26
47785;BME280;35233;55.686;37.848;2023-08-08T04:10:57;98987.66;;;25.68;48.43
47785;BME280;35233;55.686;37.848;2023-08-08T04:13:23;99002.91;;;25.69;48.52
47785;BME280;35233;55.686;37.848;2023-08-08T04:15:48;98999.72;;;25.74;47.96
47785;BME280;35233;55.686;37.848;2023-08-08T04:18:17;99005.38;;;25.99;48.21
47785;BME280;35233;55.686;37.848;2023-08-08T04:20:42;99013.63;;;25.61;48.78
47785;BME280;35233;55.686;37.848;2023-08-08T04:23:08;99029.13;;;25.87;48.16
47785;BME280;35233;55.686;37.848;2023-08-08T04:25:33;99025.09;;;25.91;48.03
47785;BME280;35233;55.686;37.848;2023-08-08T04:27:59;99013.56;;;25.89;47.82
47785;BME280;35233;55.686;37.848;2023-08-08T04:30:24;99024.09;;;25.92;47.95
47785;BME280;35233;55.686;37.848;2023-08-08T04:32:50;99002.91;;;25.87;48.39
47785;BME280;35233;55.686;37.848;2023-08-08T04:35:15;99017.66;;;25.93;48.53
47785;BME280;35233;55.686;37.848;2023-08-08T04:37:41;99014.13;;;25.74;49.26
47785;BME280;35233;55.686;37.848;2023-08-08T04:40:07;98990.34;;;25.68;48.52
47785;BME280;35233;55.686;37.848;2023-08-08T04:42:33;98999.50;;;25.67;49.00
47785;BME280;35233;55.686;37.848;2023-08-08T04:44:59;98995.16;;;25.74;49.16
47785;BME280;35233;55.686;37.848;2023-08-08T04:47:25;99007.69;;;25.75;49.10
47785;BME280;35233;55.686;37.848;2023-08-08T04:49:50;99024.69;;;25.68;48.79
47785;BME280;35233;55.686;37.848;2023-08-08T04:52:16;99014.56;;;25.70;48.89
47785;BME280;35233;55.686;37.848;2023-08-08T04:54:41;99016.97;;;25.55;49.38
47785;BME280;35233;55.686;37.848;2023-08-08T04:57:07;99017.09;;;25.53;49.55
47785;BME280;35233;55.686;37.848;2023-08-08T04:59:32;99015.63;;;25.59;49.65
47785;BME280;35233;55.686;37.848;2023-08-08T05:01:58;99009.06;;;25.80;48.86
47785;BME280;35233;55.686;37.848;2023-08-08T05:04:23;98997.81;;;25.84;49.41
47785;BME280;35233;55.686;37.848;2023-08-08T05:06:49;99018.06;;;25.98;48.59
47785;BME280;35233;55.686;37.848;2023-08-08T05:09:14;99021.69;;;25.89;49.08
47785;BME280;35233;55.686;37.848;2023-08-08T05:11:41;99037.56;;;25.84;49.09
47785;BME280;35233;55.686;37.848;2023-08-08T05:14:06;99026.09;;;25.90;49.13
47785;BME280;35233;55.686;37.848;2023-08-08T05:16:32;99023.47;;;25.98;48.80
47785;BME280;35233;55.686;37.848;2023-08-08T05:18:59;99023.28;;;25.82;49.18
47785;BME280;35233;55.686;37.848;2023-08-08T05:21:25;99016.13;;;25.90;49.46
47785;BME280;35233;55.686;37.848;2023-08-08T05:23:50;99024.47;;;25.61;49.94
47785;BME280;35233;55.686;37.848;2023-08-08T05:26:16;99009.91;;;25.80;49.91
47785;BME280;35233;55.686;37.848;2023-08-08T05:28:41;98999.94;;;25.99;49.52
47785;BME280;35233;55.686;37.848;2023-08-08T05:31:07;98998.84;;;26.09;49.26
47785;BME280;35233;55.686;37.848;2023-08-08T05:33:33;99018.97;;;26.07;48.91
47785;BME280;35233;55.686;37.848;2023-08-08T05:35:59;99015.69;;;26.03;48.99
47785;BME280;35233;55.686;37.848;2023-08-08T05:38:24;99008.16;;;26.15;48.91
47785;BME280;35233;55.686;37.848;2023-08-08T05:40:50;99019.88;;;26.15;48.88
47785;BME280;35233;55.686;37.848;2023-08-08T05:43:17;99017.09;;;26.07;48.84
47785;BME280;35233;55.686;37.848;2023-08-08T05:45:44;99013.38;;;26.08;49.40
47785;BME280;35233;55.686;37.848;2023-08-08T05:48:09;99013.88;;;25.86;49.31
47785;BME280;35233;55.686;37.848;2023-08-08T05:50:40;99018.91;;;25.99;49.66
47785;BME280;35233;55.686;37.848;2023-08-08T05:53:07;99023.28;;;25.82;50.07
47785;BME280;35233;55.686;37.848;2023-08-08T05:55:33;99024.47;;;25.61;50.15
47785;BME280;35233;55.686;37.848;2023-08-08T05:57:58;99025.84;;;25.65;50.60
47785;BME280;35233;55.686;37.848;2023-08-08T06:00:24;99032.09;;;25.48;51.06
47785;BME280;35233;55.686;37.848;2023-08-08T06:02:52;99031.78;;;25.51;51.17
47785;BME280;35233;55.686;37.848;2023-08-08T06:05:21;99026.63;;;25.58;50.98
47785;BME280;35233;55.686;37.848;2023-08-08T06:07:51;99036.28;;;25.78;50.55
47785;BME280;35233;55.686;37.848;2023-08-08T06:10:16;99023.69;;;25.69;50.92
47785;BME280;35233;55.686;37.848;2023-08-08T06:12:42;99028.22;;;25.68;50.82
47785;BME280;35233;55.686;37.848;2023-08-08T06:15:08;99030.03;;;25.78;50.51
47785;BME280;35233;55.686;37.848;2023-08-08T06:17:34;99032.31;;;26.08;49.97
47785;BME280;35233;55.686;37.848;2023-08-08T06:19:59;99020.47;;;25.83;50.22
47785;BME280;35233;55.686;37.848;2023-08-08T06:22:25;99028.78;;;25.72;51.34
47785;BME280;35233;55.686;37.848;2023-08-08T06:24:51;99017.88;;;25.82;51.27
47785;BME280;35233;55.686;37.848;2023-08-08T06:27:17;99019.84;;;25.89;50.62
47785;BME280;35233;55.686;37.848;2023-08-08T06:29:42;99026.84;;;25.64;51.04
47785;BME280;35233;55.686;37.848;2023-08-08T06:32:08;99023.75;;;25.59;51.44
47785;BME280;35233;55.686;37.848;2023-08-08T06:34:34;99022.16;;;25.66;51.05
47785;BME280;35233;55.686;37.848;2023-08-08T06:36:59;99030.09;;;26.04;50.25
47785;BME280;35233;55.686;37.848;2023-08-08T06:39:25;99029.22;;;26.21;50.26
47785;BME280;35233;55.686;37.848;2023-08-08T06:41:50;99019.56;;;26.18;50.14
47785;BME280;35233;55.686;37.848;2023-08-08T06:44:16;99036.16;;;26.24;49.62
47785;BME280;35233;55.686;37.848;2023-08-08T06:46:42;99028.91;;;26.24;50.03
47785;BME280;35233;55.686;37.848;2023-08-08T06:49:07;99031.31;;;26.53;49.22
47785;BME280;35233;55.686;37.848;2023-08-08T06:51:34;99025.06;;;26.61;48.80
47785;BME280;35233;55.686;37.848;2023-08-08T06:54:00;99040.34;;;26.70;48.56
47785;BME280;35233;55.686;37.848;2023-08-08T06:56:26;99037.16;;;26.49;49.29
47785;BME280;35233;55.686;37.848;2023-08-08T06:58:53;99030.03;;;26.66;48.78
47785;BME280;35233;55.686;37.848;2023-08-08T07:01:19;99033.09;;;26.71;48.56
47785;BME280;35233;55.686;37.848;2023-08-08T07:03:45;99041.94;;;26.81;48.36
47785;BME280;35233;55.686;37.848;2023-08-08T07:06:12;99038.25;;;26.90;48.19
47785;BME280;35233;55.686;37.848;2023-08-08T07:08:38;99033.50;;;26.84;47.75
47785;BME280;35233;55.686;37.848;2023-08-08T07:11:06;99024.31;;;26.77;47.89
47785;BME280;35233;55.686;37.848;2023-08-08T07:13:32;99030.41;;;26.79;47.88
47785;BME280;35233;55.686;37.848;2023-08-08T07:15:58;99030.22;;;26.72;48.12
47785;BME280;35233;55.686;37.848;2023-08-08T07:18:24;99037.03;;;26.84;47.83
47785;BME280;35233;55.686;37.848;2023-08-08T07:20:49;99040.31;;;26.88;47.91
47785;BME280;35233;55.686;37.848;2023-08-08T07:23:15;99045.16;;;26.84;48.02
47785;BME280;35233;55.686;37.848;2023-08-08T07:25:45;99041.47;;;26.85;48.22
47785;BME280;35233;55.686;37.848;2023-08-08T07:28:12;99052.66;;;26.91;48.04
47785;BME280;35233;55.686;37.848;2023-08-08T07:30:40;99048.78;;;26.93;48.21
47785;BME280;35233;55.686;37.848;2023-08-08T07:33:06;99065.94;;;26.68;48.76
47785;BME280;35233;55.686;37.848;2023-08-08T07:35:34;99063.38;;;26.66;48.96
47785;BME280;35233;55.686;37.848;2023-08-08T07:38:00;99054.75;;;26.45;49.29
47785;BME280;35233;55.686;37.848;2023-08-08T07:40:25;99057.06;;;26.57;49.44
47785;BME280;35233;55.686;37.848;2023-08-08T07:42:52;99077.25;;;26.63;48.81
47785;BME280;35233;55.686;37.848;2023-08-08T07:45:17;99065.19;;;26.57;49.16
47785;BME280;35233;55.686;37.848;2023-08-08T07:47:43;99062.81;;;26.54;49.27
47785;BME280;35233;55.686;37.848;2023-08-08T07:50:10;99034.84;;;26.28;50.50
47785;BME280;35233;55.686;37.848;2023-08-08T07:52:40;99024.44;;;25.79;52.03
47785;BME280;35233;55.686;37.848;2023-08-08T07:55:23;99044.59;;;26.47;49.71
47785;BME280;35233;55.686;37.848;2023-08-08T07:57:58;99062.41;;;26.75;49.48
47785;BME280;35233;55.686;37.848;2023-08-08T08:00:23;99060.59;;;26.84;49.40
47785;BME280;35233;55.686;37.848;2023-08-08T08:02:49;99059.28;;;26.88;49.69
47785;BME280;35233;55.686;37.848;2023-08-08T08:05:15;99055.53;;;26.89;49.48
47785;BME280;35233;55.686;37.848;2023-08-08T08:07:41;99061.88;;;27.06;49.55
47785;BME280;35233;55.686;37.848;2023-08-08T08:10:10;99065.13;;;27.09;49.11
47785;BME280;35233;55.686;37.848;2023-08-08T08:12:39;99060.59;;;27.18;49.50
47785;BME280;35233;55.686;37.848;2023-08-08T08:15:05;99063.50;;;27.25;49.52
47785;BME280;35233;55.686;37.848;2023-08-08T08:17:31;99066.47;;;27.05;50.38
47785;BME280;35233;55.686;37.848;2023-08-08T08:19:57;99068.06;;;26.56;51.95
47785;BME280;35233;55.686;37.848;2023-08-08T08:22:22;99067.81;;;26.49;52.08
47785;BME280;35233;55.686;37.848;2023-08-08T08:24:48;99063.84;;;26.61;51.50
47785;BME280;35233;55.686;37.848;2023-08-08T08:27:14;99067.44;;;26.44;52.16
47785;BME280;35233;55.686;37.848;2023-08-08T08:29:39;99072.00;;;26.43;52.10
47785;BME280;35233;55.686;37.848;2023-08-08T08:32:05;99068.84;;;26.48;52.06
47785;BME280;35233;55.686;37.848;2023-08-08T08:34:31;99073.81;;;26.35;53.19
47785;BME280;35233;55.686;37.848;2023-08-08T08:36:57;99071.66;;;26.20;53.89
47785;BME280;35233;55.686;37.848;2023-08-08T08:39:23;99077.56;;;26.60;52.38
47785;BME280;35233;55.686;37.848;2023-08-08T08:41:52;99078.72;;;26.83;51.55
47785;BME280;35233;55.686;37.848;2023-08-08T08:44:21;99094.09;;;27.09;50.67
47785;BME280;35233;55.686;37.848;2023-08-08T08:46:48;99084.78;;;27.12;51.34
47785;BME280;35233;55.686;37.848;2023-08-08T08:49:17;99086.03;;;27.25;50.84
47785;BME280;35233;55.686;37.848;2023-08-08T08:51:44;99084.78;;;27.12;51.88
47785;BME280;35233;55.686;37.848;2023-08-08T08:54:10;99078.16;;;26.72;53.62
47785;BME280;35233;55.686;37.848;2023-08-08T08:56:36;99078.66;;;26.49;54.29
47785;BME280;35233;55.686;37.848;2023-08-08T08:59:03;99078.44;;;26.42;53.70
47785;BME280;35233;55.686;37.848;2023-08-08T09:01:29;99091.97;;;26.42;53.35
47785;BME280;35233;55.686;37.848;2023-08-08T09:03:55;99098.34;;;26.51;53.13
47785;BME280;35233;55.686;37.848;2023-08-08T09:06:23;99086.16;;;26.55;53.08
47785;BME280;35233;55.686;37.848;2023-08-08T09:08:49;99080.59;;;26.83;52.01
47785;BME280;35233;55.686;37.848;2023-08-08T09:11:15;99097.78;;;27.00;52.16
47785;BME280;35233;55.686;37.848;2023-08-08T09:13:41;99085.81;;;26.50;54.25
47785;BME280;35233;55.686;37.848;2023-08-08T09:16:08;99076.44;;;26.27;55.41
47785;BME280;35233;55.686;37.848;2023-08-08T09:18:34;99098.78;;;26.47;54.75
47785;BME280;35233;55.686;37.848;2023-08-08T09:21:06;99096.91;;;26.65;54.08
47785;BME280;35233;55.686;37.848;2023-08-08T09:23:33;99102.00;;;26.68;53.34
47785;BME280;35233;55.686;37.848;2023-08-08T09:25:59;99107.78;;;26.73;54.10
47785;BME280;35233;55.686;37.848;2023-08-08T09:28:25;99114.00;;;26.66;54.50
47785;BME280;35233;55.686;37.848;2023-08-08T09:30:51;99109.28;;;26.68;54.35
47785;BME280;35233;55.686;37.848;2023-08-08T09:33:19;99102.28;;;26.57;54.80
47785;BME280;35233;55.686;37.848;2023-08-08T09:35:48;99103.00;;;26.67;54.58
47785;BME280;35233;55.686;37.848;2023-08-08T09:38:15;99103.06;;;26.75;53.72
47785;BME280;35233;55.686;37.848;2023-08-08T09:40:41;99102.06;;;26.76;53.97
47785;BME280;35233;55.686;37.848;2023-08-08T09:43:07;99094.78;;;26.77;53.52
47785;BME280;35233;55.686;37.848;2023-08-08T09:45:44;99105.63;;;26.77;53.80
47785;BME280;35233;55.686;37.848;2023-08-08T09:48:11;99094.34;;;26.90;53.15
47785;BME280;35233;55.686;37.848;2023-08-08T09:50:37;99103.44;;;27.15;52.52
47785;BME280;35233;55.686;37.848;2023-08-08T09:53:03;99104.41;;;27.31;52.20
47785;BME280;35233;55.686;37.848;2023-08-08T09:55:30;99112.28;;;27.17;52.64
47785;BME280;35233;55.686;37.848;2023-08-08T09:57:58;99113.03;;;27.01;52.78
47785;BME280;35233;55.686;37.848;2023-08-08T10:00:24;99113.66;;;27.21;51.90
47785;BME280;35233;55.686;37.848;2023-08-08T10:02:56;99113.47;;;27.22;52.19
47785;BME280;35233;55.686;37.848;2023-08-08T10:05:27;99128.13;;;27.03;52.32
47785;BME280;35233;55.686;37.848;2023-08-08T10:07:54;99117.94;;;26.97;52.31
47785;BME280;35233;55.686;37.848;2023-08-08T10:10:20;99125.47;;;27.12;52.39
47785;BME280;35233;55.686;37.848;2023-08-08T10:12:47;99123.59;;;27.12;51.94
47785;BME280;35233;55.686;37.848;2023-08-08T10:15:13;99122.84;;;27.02;52.55
47785;BME280;35233;55.686;37.848;2023-08-08T10:17:40;99129.72;;;27.14;52.20
47785;BME280;35233;55.686;37.848;2023-08-08T10:20:08;99125.13;;;27.15;52.30
47785;BME280;35233;55.686;37.848;2023-08-08T10:22:43;99126.78;;;27.07;52.51
47785;BME280;35233;55.686;37.848;2023-08-08T10:25:18;99117.59;;;27.00;52.39
47785;BME280;35233;55.686;37.848;2023-08-08T10:27:44;99117.06;;;27.23;51.96
47785;BME280;35233;55.686;37.848;2023-08-08T10:30:10;99109.78;;;27.23;51.93
47785;BME280;35233;55.686;37.848;2023-08-08T10:32:43;99121.03;;;27.45;51.59
47785;BME280;35233;55.686;37.848;2023-08-08T10:35:11;99114.66;;;27.70;51.08
47785;BME280;35233;55.686;37.848;2023-08-08T10:37:37;99107.25;;;27.81;50.73
47785;BME280;35233;55.686;37.848;2023-08-08T10:40:04;99110.31;;;27.86;50.72
47785;BME280;35233;55.686;37.848;2023-08-08T10:42:41;99114.41;;;28.06;50.25
47785;BME280;35233;55.686;37.848;2023-08-08T10:45:09;99121.38;;;28.25;49.47
47785;BME280;35233;55.686;37.848;2023-08-08T10:47:36;99116.97;;;28.40;48.74
47785;BME280;35233;55.686;37.848;2023-08-08T10:52:33;99122.41;;;28.16;49.52
47785;BME280;35233;55.686;37.848;2023-08-08T10:55:01;99117.47;;;28.36;48.62
47785;BME280;35233;55.686;37.848;2023-08-08T10:57:28;99130.53;;;28.40;48.39
47785;BME280;35233;55.686;37.848;2023-08-08T10:59:53;99124.59;;;28.29;48.53
47785;BME280;35233;55.686;37.848;2023-08-08T11:02:20;99132.41;;;28.24;48.96
47785;BME280;35233;55.686;37.848;2023-08-08T11:04:48;99125.78;;;28.10;49.02
47785;BME280;35233;55.686;37.848;2023-08-08T11:07:15;99122.72;;;28.21;49.13
47785;BME280;35233;55.686;37.848;2023-08-08T11:09:41;99131.19;;;28.10;49.38
47785;BME280;35233;55.686;37.848;2023-08-08T11:12:13;99130.69;;;28.06;49.29
47785;BME280;35233;55.686;37.848;2023-08-08T11:14:45;99135.66;;;28.19;49.37
47785;BME280;35233;55.686;37.848;2023-08-08T11:17:11;99142.28;;;28.25;48.98
47785;BME280;35233;55.686;37.848;2023-08-08T11:19:40;99134.97;;;28.41;48.54
47785;BME280;35233;55.686;37.848;2023-08-08T11:22:09;99138.53;;;28.58;48.22
47785;BME280;35233;55.686;37.848;2023-08-08T11:24:38;99143.28;;;28.40;48.56
47785;BME280;35233;55.686;37.848;2023-08-08T11:27:04;99152.78;;;28.36;48.58
47785;BME280;35233;55.686;37.848;2023-08-08T11:29:29;99137.69;;;28.58;48.21
47785;BME280;35233;55.686;37.848;2023-08-08T11:32:01;99144.31;;;28.55;48.20
47785;BME280;35233;55.686;37.848;2023-08-08T11:34:32;99139.91;;;28.54;47.91
47785;BME280;35233;55.686;37.848;2023-08-08T11:37:01;99143.13;;;28.66;47.89
47785;BME280;35233;55.686;37.848;2023-08-08T11:39:28;99131.91;;;28.61;47.78
47785;BME280;35233;55.686;37.848;2023-08-08T11:41:55;99149.25;;;28.60;47.78
47785;BME280;35233;55.686;37.848;2023-08-08T11:44:21;99143.47;;;28.55;47.88
47785;BME280;35233;55.686;37.848;2023-08-08T11:46:47;99148.88;;;28.22;48.33
47785;BME280;35233;55.686;37.848;2023-08-08T11:49:14;99144.44;;;27.88;48.89
47785;BME280;35233;55.686;37.848;2023-08-08T11:51:43;99148.00;;;27.97;49.03
47785;BME280;35233;55.686;37.848;2023-08-08T11:54:08;99142.91;;;27.94;48.99
47785;BME280;35233;55.686;37.848;2023-08-08T11:56:35;99146.81;;;27.99;48.98
47785;BME280;35233;55.686;37.848;2023-08-08T11:59:01;99149.13;;;27.78;49.27
47785;BME280;35233;55.686;37.848;2023-08-08T12:01:27;99146.50;;;27.60;49.40
47785;BME280;35233;55.686;37.848;2023-08-08T12:03:54;99154.88;;;27.75;49.60
47785;BME280;35233;55.686;37.848;2023-08-08T12:06:20;99152.22;;;27.83;49.20
47785;BME280;35233;55.686;37.848;2023-08-08T12:08:47;99151.81;;;27.70;49.60
47785;BME280;35233;55.686;37.848;2023-08-08T12:11:14;99156.00;;;27.56;50.07
47785;BME280;35233;55.686;37.848;2023-08-08T12:13:44;99146.16;;;27.47;50.32
47785;BME280;35233;55.686;37.848;2023-08-08T12:16:11;99158.50;;;27.41;50.44
47785;BME280;35233;55.686;37.848;2023-08-08T12:18:38;99159.88;;;27.45;49.98
47785;BME280;35233;55.686;37.848;2023-08-08T12:21:05;99152.19;;;27.33;50.36
47785;BME280;35233;55.686;37.848;2023-08-08T12:23:31;99153.41;;;27.38;50.28
47785;BME280;35233;55.686;37.848;2023-08-08T12:25:57;99154.06;;;27.32;50.33
47785;BME280;35233;55.686;37.848;2023-08-08T12:28:26;99152.00;;;27.34;50.57
47785;BME280;35233;55.686;37.848;2023-08-08T12:30:52;99149.16;;;27.36;50.23
47785;BME280;35233;55.686;37.848;2023-08-08T12:33:20;99142.03;;;27.35;50.00
47785;BME280;35233;55.686;37.848;2023-08-08T12:35:47;99139.84;;;27.38;50.21
47785;BME280;35233;55.686;37.848;2023-08-08T12:38:13;99139.47;;;27.33;50.10
47785;BME280;35233;55.686;37.848;2023-08-08T12:40:39;99142.56;;;27.38;50.44
47785;BME280;35233;55.686;37.848;2023-08-08T12:43:05;99150.31;;;27.33;50.39
47785;BME280;35233;55.686;37.848;2023-08-08T12:45:31;99137.09;;;27.30;50.38
47785;BME280;35233;55.686;37.848;2023-08-08T12:47:57;99141.47;;;27.23;50.90
47785;BME280;35233;55.686;37.848;2023-08-08T12:50:22;99138.84;;;27.13;50.74
47785;BME280;35233;55.686;37.848;2023-08-08T12:52:48;99141.50;;;27.05;51.41
47785;BME280;35233;55.686;37.848;2023-08-08T12:55:14;99139.28;;;27.00;51.58